sensor_id;sensor_type;location;lat;lon;timestamp;temperature;humidity
13470;DHT22;6807;48.682;9.032;2023-06-26T00:20:51;16.90;1.00
13470;DHT22;6807;48.682;9.032;2023-06-26T00:38:03;16.60;1.00
13470;DHT22;6807;48.682;9.032;2023-06-26T00:40:30;16.30;99.90
13470;DHT22;6807;48.682;9.032;2023-06-26T00:50:19;16.50;1.00
13470;DHT22;6807;48.682;9.032;2023-06-26T00:55:21;16.30;1.00
13470;DHT22;6807;48.682;9.032;2023-06-26T01:00:16;16.20;99.90
13470;DHT22;6807;48.682;9.032;2023-06-26T01:05:13;16.20;99.90
13470;DHT22;6807;48.682;9.032;2023-06-26T01:07:47;16.20;99.90
13470;DHT22;6807;48.682;9.032;2023-06-26T01:12:43;16.20;99.90
13470;DHT22;6807;48.682;9.032;2023-06-26T01:17:39;16.20;1.00
13470;DHT22;6807;48.682;9.032;2023-06-26T01:20:11;16.00;1.00
13470;DHT22;6807;48.682;9.032;2023-06-26T01:22:45;16.10;1.00
13470;DHT22;6807;48.682;9.032;2023-06-26T01:25:20;16.00;23.50
13470;DHT22;6807;48.682;9.032;2023-06-26T01:27:50;16.00;99.90
13470;DHT22;6807;48.682;9.032;2023-06-26T01:30:20;16.00;99.90
13470;DHT22;6807;48.682;9.032;2023-06-26T01:32:48;16.00;99.90
13470;DHT22;6807;48.682;9.032;2023-06-26T01:37:43;15.90;99.90
13470;DHT22;6807;48.682;9.032;2023-06-26T01:40:10;16.00;99.90
13470;DHT22;6807;48.682;9.032;2023-06-26T01:42:38;16.00;99.90
13470;DHT22;6807;48.682;9.032;2023-06-26T01:45:12;15.60;99.90
13470;DHT22;6807;48.682;9.032;2023-06-26T01:47:42;15.80;99.90
13470;DHT22;6807;48.682;9.032;2023-06-26T01:50:29;16.10;99.90
13470;DHT22;6807;48.682;9.032;2023-06-26T01:53:01;15.70;99.90
13470;DHT22;6807;48.682;9.032;2023-06-26T01:55:32;15.70;99.90
13470;DHT22;6807;48.682;9.032;2023-06-26T02:00:31;15.90;99.90
13470;DHT22;6807;48.682;9.032;2023-06-26T02:15:15;15.30;99.90
13470;DHT22;6807;48.682;9.032;2023-06-26T02:17:43;15.30;99.90
13470;DHT22;6807;48.682;9.032;2023-06-26T02:20:14;15.50;99.90
13470;DHT22;6807;48.682;9.032;2023-06-26T02:22:41;15.50;99.90
13470;DHT22;6807;48.682;9.032;2023-06-26T02:25:09;15.50;99.90
13470;DHT22;6807;48.682;9.032;2023-06-26T02:27:36;15.60;99.90
13470;DHT22;6807;48.682;9.032;2023-06-26T02:30:03;15.50;99.90
13470;DHT22;6807;48.682;9.032;2023-06-26T02:32:30;15.50;99.90
13470;DHT22;6807;48.682;9.032;2023-06-26T02:34:59;15.40;99.90
13470;DHT22;6807;48.682;9.032;2023-06-26T02:39:53;14.90;99.90
13470;DHT22;6807;48.682;9.032;2023-06-26T02:42:20;15.40;99.90
13470;DHT22;6807;48.682;9.032;2023-06-26T02:44:47;15.50;99.90
13470;DHT22;6807;48.682;9.032;2023-06-26T02:47:14;15.50;99.90
13470;DHT22;6807;48.682;9.032;2023-06-26T02:49:41;15.40;99.90
13470;DHT22;6807;48.682;9.032;2023-06-26T02:52:10;15.40;99.90
13470;DHT22;6807;48.682;9.032;2023-06-26T02:54:36;15.40;99.90
13470;DHT22;6807;48.682;9.032;2023-06-26T02:57:04;15.40;99.90
13470;DHT22;6807;48.682;9.032;2023-06-26T02:59:31;15.40;99.90
13470;DHT22;6807;48.682;9.032;2023-06-26T03:01:58;15.40;99.90
13470;DHT22;6807;48.682;9.032;2023-06-26T03:04:25;15.30;99.90
13470;DHT22;6807;48.682;9.032;2023-06-26T03:06:52;15.30;99.90
13470;DHT22;6807;48.682;9.032;2023-06-26T03:09:20;15.30;99.90
13470;DHT22;6807;48.682;9.032;2023-06-26T03:11:47;15.30;1.00
13470;DHT22;6807;48.682;9.032;2023-06-26T03:14:15;15.20;1.00
13470;DHT22;6807;48.682;9.032;2023-06-26T03:16:42;15.20;1.00
13470;DHT22;6807;48.682;9.032;2023-06-26T03:19:09;15.20;1.00
13470;DHT22;6807;48.682;9.032;2023-06-26T03:21:36;15.30;1.00
13470;DHT22;6807;48.682;9.032;2023-06-26T03:24:03;15.30;1.00
13470;DHT22;6807;48.682;9.032;2023-06-26T03:26:32;15.30;1.00
13470;DHT22;6807;48.682;9.032;2023-06-26T03:28:59;15.40;1.00
13470;DHT22;6807;48.682;9.032;2023-06-26T03:31:25;15.40;99.90
13470;DHT22;6807;48.682;9.032;2023-06-26T03:33:52;15.40;99.90
13470;DHT22;6807;48.682;9.032;2023-06-26T03:36:21;15.40;99.90
13470;DHT22;6807;48.682;9.032;2023-06-26T03:38:48;15.40;99.90
13470;DHT22;6807;48.682;9.032;2023-06-26T03:41:15;15.40;99.90
13470;DHT22;6807;48.682;9.032;2023-06-26T03:43:43;15.30;99.90
13470;DHT22;6807;48.682;9.032;2023-06-26T03:46:10;15.30;99.90
13470;DHT22;6807;48.682;9.032;2023-06-26T03:48:37;15.30;99.90
13470;DHT22;6807;48.682;9.032;2023-06-26T03:51:04;15.30;99.90
13470;DHT22;6807;48.682;9.032;2023-06-26T03:53:32;15.40;99.90
13470;DHT22;6807;48.682;9.032;2023-06-26T03:55:59;15.30;99.90
13470;DHT22;6807;48.682;9.032;2023-06-26T03:58:26;15.40;99.90
13470;DHT22;6807;48.682;9.032;2023-06-26T04:00:54;15.40;99.90
13470;DHT22;6807;48.682;9.032;2023-06-26T04:03:23;15.40;99.90
13470;DHT22;6807;48.682;9.032;2023-06-26T04:05:50;15.40;99.90
13470;DHT22;6807;48.682;9.032;2023-06-26T04:08:17;15.40;99.90
13470;DHT22;6807;48.682;9.032;2023-06-26T04:10:45;15.40;99.90
13470;DHT22;6807;48.682;9.032;2023-06-26T04:13:13;15.40;99.90
13470;DHT22;6807;48.682;9.032;2023-06-26T04:15:41;15.40;99.90
13470;DHT22;6807;48.682;9.032;2023-06-26T04:18:09;15.40;99.90
13470;DHT22;6807;48.682;9.032;2023-06-26T04:20:39;15.50;99.90
13470;DHT22;6807;48.682;9.032;2023-06-26T04:23:29;15.60;99.90
13470;DHT22;6807;48.682;9.032;2023-06-26T04:26:56;15.80;99.90
13470;DHT22;6807;48.682;9.032;2023-06-26T04:29:48;15.80;99.90
13470;DHT22;6807;48.682;9.032;2023-06-26T04:38:32;15.50;99.90
13470;DHT22;6807;48.682;9.032;2023-06-26T04:43:39;16.10;99.90
13470;DHT22;6807;48.682;9.032;2023-06-26T04:46:30;16.40;99.90
13470;DHT22;6807;48.682;9.032;2023-06-26T04:48:57;15.50;99.90
13470;DHT22;6807;48.682;9.032;2023-06-26T04:51:30;16.50;99.90
13470;DHT22;6807;48.682;9.032;2023-06-26T04:53:57;16.50;99.90
13470;DHT22;6807;48.682;9.032;2023-06-26T04:56:24;16.70;99.90
13470;DHT22;6807;48.682;9.032;2023-06-26T04:58:51;16.70;99.90
13470;DHT22;6807;48.682;9.032;2023-06-26T05:01:18;16.80;99.90
13470;DHT22;6807;48.682;9.032;2023-06-26T05:03:45;16.80;99.90
13470;DHT22;6807;48.682;9.032;2023-06-26T05:06:13;16.90;99.90
13470;DHT22;6807;48.682;9.032;2023-06-26T05:08:41;17.00;99.90
13470;DHT22;6807;48.682;9.032;2023-06-26T05:11:08;17.20;99.90
13470;DHT22;6807;48.682;9.032;2023-06-26T05:13:35;17.30;99.90
13470;DHT22;6807;48.682;9.032;2023-06-26T05:16:02;17.60;99.90
13470;DHT22;6807;48.682;9.032;2023-06-26T05:18:29;17.80;99.90
13470;DHT22;6807;48.682;9.032;2023-06-26T05:20:57;18.10;99.90
13470;DHT22;6807;48.682;9.032;2023-06-26T05:23:25;18.10;99.90
13470;DHT22;6807;48.682;9.032;2023-06-26T05:25:54;18.40;99.90
13470;DHT22;6807;48.682;9.032;2023-06-26T05:28:21;18.60;99.90
13470;DHT22;6807;48.682;9.032;2023-06-26T05:30:50;18.90;99.90
13470;DHT22;6807;48.682;9.032;2023-06-26T05:33:18;19.20;99.90
13470;DHT22;6807;48.682;9.032;2023-06-26T05:35:46;19.40;99.90
13470;DHT22;6807;48.682;9.032;2023-06-26T05:38:13;19.70;99.90
13470;DHT22;6807;48.682;9.032;2023-06-26T05:40:41;20.10;99.90
13470;DHT22;6807;48.682;9.032;2023-06-26T05:43:10;20.40;99.90
13470;DHT22;6807;48.682;9.032;2023-06-26T05:45:37;20.70;99.90
13470;DHT22;6807;48.682;9.032;2023-06-26T05:48:04;20.90;99.90
13470;DHT22;6807;48.682;9.032;2023-06-26T05:50:32;21.10;99.90
13470;DHT22;6807;48.682;9.032;2023-06-26T05:52:59;21.30;99.90
13470;DHT22;6807;48.682;9.032;2023-06-26T05:55:29;21.50;99.90
13470;DHT22;6807;48.682;9.032;2023-06-26T05:57:58;21.70;99.90
13470;DHT22;6807;48.682;9.032;2023-06-26T06:00:28;21.90;99.90
13470;DHT22;6807;48.682;9.032;2023-06-26T06:02:55;22.10;99.90
13470;DHT22;6807;48.682;9.032;2023-06-26T06:05:22;22.30;99.90
13470;DHT22;6807;48.682;9.032;2023-06-26T06:07:49;22.40;99.90
13470;DHT22;6807;48.682;9.032;2023-06-26T06:10:16;22.60;99.90
13470;DHT22;6807;48.682;9.032;2023-06-26T06:12:43;22.70;99.90
13470;DHT22;6807;48.682;9.032;2023-06-26T06:15:10;22.90;99.90
13470;DHT22;6807;48.682;9.032;2023-06-26T06:17:38;23.10;99.90
13470;DHT22;6807;48.682;9.032;2023-06-26T06:20:06;23.20;99.90
13470;DHT22;6807;48.682;9.032;2023-06-26T06:22:33;23.40;99.90
13470;DHT22;6807;48.682;9.032;2023-06-26T06:25:00;23.60;99.90
13470;DHT22;6807;48.682;9.032;2023-06-26T06:27:27;23.90;99.90
13470;DHT22;6807;48.682;9.032;2023-06-26T06:29:54;24.10;99.90
13470;DHT22;6807;48.682;9.032;2023-06-26T06:32:21;24.30;99.90
13470;DHT22;6807;48.682;9.032;2023-06-26T06:34:49;24.60;99.90
13470;DHT22;6807;48.682;9.032;2023-06-26T06:37:17;24.90;99.90
13470;DHT22;6807;48.682;9.032;2023-06-26T06:39:43;25.20;99.90
13470;DHT22;6807;48.682;9.032;2023-06-26T06:42:10;25.40;99.90
13470;DHT22;6807;48.682;9.032;2023-06-26T06:44:37;25.50;99.90
13470;DHT22;6807;48.682;9.032;2023-06-26T06:47:04;25.70;99.90
13470;DHT22;6807;48.682;9.032;2023-06-26T06:49:31;26.10;99.90
13470;DHT22;6807;48.682;9.032;2023-06-26T06:52:00;26.30;99.90
13470;DHT22;6807;48.682;9.032;2023-06-26T06:54:27;26.50;99.90
13470;DHT22;6807;48.682;9.032;2023-06-26T06:56:54;26.70;99.90
13470;DHT22;6807;48.682;9.032;2023-06-26T06:59:21;26.70;99.90
13470;DHT22;6807;48.682;9.032;2023-06-26T07:01:48;26.70;99.90
13470;DHT22;6807;48.682;9.032;2023-06-26T07:04:15;27.00;99.90
13470;DHT22;6807;48.682;9.032;2023-06-26T07:06:41;27.30;99.90
13470;DHT22;6807;48.682;9.032;2023-06-26T07:09:10;27.60;99.90
13470;DHT22;6807;48.682;9.032;2023-06-26T07:11:37;27.50;99.90
13470;DHT22;6807;48.682;9.032;2023-06-26T07:14:04;27.60;99.90
13470;DHT22;6807;48.682;9.032;2023-06-26T07:16:30;28.00;99.90
13470;DHT22;6807;48.682;9.032;2023-06-26T07:18:57;28.30;99.90
13470;DHT22;6807;48.682;9.032;2023-06-26T07:21:24;28.30;99.90
13470;DHT22;6807;48.682;9.032;2023-06-26T07:23:51;28.40;99.90
13470;DHT22;6807;48.682;9.032;2023-06-26T07:26:19;28.50;99.90
13470;DHT22;6807;48.682;9.032;2023-06-26T07:28:47;28.70;99.90
13470;DHT22;6807;48.682;9.032;2023-06-26T07:31:15;29.10;99.90
13470;DHT22;6807;48.682;9.032;2023-06-26T07:33:42;29.10;99.90
13470;DHT22;6807;48.682;9.032;2023-06-26T07:36:09;29.30;99.90
13470;DHT22;6807;48.682;9.032;2023-06-26T07:38:36;29.30;99.90
13470;DHT22;6807;48.682;9.032;2023-06-26T07:41:03;29.50;99.90
13470;DHT22;6807;48.682;9.032;2023-06-26T07:43:32;29.60;99.90
13470;DHT22;6807;48.682;9.032;2023-06-26T07:45:58;30.00;99.90
13470;DHT22;6807;48.682;9.032;2023-06-26T07:48:26;29.80;99.90
13470;DHT22;6807;48.682;9.032;2023-06-26T07:50:53;29.90;99.90
13470;DHT22;6807;48.682;9.032;2023-06-26T07:53:20;29.90;99.90
13470;DHT22;6807;48.682;9.032;2023-06-26T07:55:47;30.50;99.90
13470;DHT22;6807;48.682;9.032;2023-06-26T07:58:14;30.80;99.90
13470;DHT22;6807;48.682;9.032;2023-06-26T08:00:42;30.90;99.90
13470;DHT22;6807;48.682;9.032;2023-06-26T08:03:09;31.00;99.90
13470;DHT22;6807;48.682;9.032;2023-06-26T08:05:36;31.10;99.90
13470;DHT22;6807;48.682;9.032;2023-06-26T08:08:03;31.30;99.90
13470;DHT22;6807;48.682;9.032;2023-06-26T08:10:30;31.10;99.90
13470;DHT22;6807;48.682;9.032;2023-06-26T08:12:57;31.30;99.90
13470;DHT22;6807;48.682;9.032;2023-06-26T08:15:24;31.40;99.90
13470;DHT22;6807;48.682;9.032;2023-06-26T08:17:52;31.70;99.90
13470;DHT22;6807;48.682;9.032;2023-06-26T08:20:19;31.70;99.90
13470;DHT22;6807;48.682;9.032;2023-06-26T08:22:46;32.00;99.90
13470;DHT22;6807;48.682;9.032;2023-06-26T08:25:14;32.50;99.90
13470;DHT22;6807;48.682;9.032;2023-06-26T08:27:41;32.70;99.90
13470;DHT22;6807;48.682;9.032;2023-06-26T08:30:09;32.90;99.90
13470;DHT22;6807;48.682;9.032;2023-06-26T08:32:36;32.80;99.90
13470;DHT22;6807;48.682;9.032;2023-06-26T08:35:05;33.40;99.90
13470;DHT22;6807;48.682;9.032;2023-06-26T08:37:33;33.60;99.90
13470;DHT22;6807;48.682;9.032;2023-06-26T08:40:00;33.70;99.90
13470;DHT22;6807;48.682;9.032;2023-06-26T08:42:27;33.30;99.90
13470;DHT22;6807;48.682;9.032;2023-06-26T08:44:54;33.50;99.90
13470;DHT22;6807;48.682;9.032;2023-06-26T08:47:21;33.10;99.90
13470;DHT22;6807;48.682;9.032;2023-06-26T08:49:53;33.20;99.90
13470;DHT22;6807;48.682;9.032;2023-06-26T08:52:27;33.20;1.00
13470;DHT22;6807;48.682;9.032;2023-06-26T08:54:58;33.70;25.90
13470;DHT22;6807;48.682;9.032;2023-06-26T08:57:26;34.10;1.00
13470;DHT22;6807;48.682;9.032;2023-06-26T08:59:54;34.20;1.00
13470;DHT22;6807;48.682;9.032;2023-06-26T09:02:21;34.00;1.00
13470;DHT22;6807;48.682;9.032;2023-06-26T09:04:49;34.50;53.50
13470;DHT22;6807;48.682;9.032;2023-06-26T09:07:16;34.90;50.70
13470;DHT22;6807;48.682;9.032;2023-06-26T09:09:45;34.40;41.00
13470;DHT22;6807;48.682;9.032;2023-06-26T09:12:12;33.90;27.30
13470;DHT22;6807;48.682;9.032;2023-06-26T09:14:40;34.00;51.50
13470;DHT22;6807;48.682;9.032;2023-06-26T09:17:07;34.80;22.00
13470;DHT22;6807;48.682;9.032;2023-06-26T09:19:36;35.20;25.00
13470;DHT22;6807;48.682;9.032;2023-06-26T09:22:04;35.00;14.30
13470;DHT22;6807;48.682;9.032;2023-06-26T09:24:31;34.90;19.90
13470;DHT22;6807;48.682;9.032;2023-06-26T09:26:59;34.50;32.60
13470;DHT22;6807;48.682;9.032;2023-06-26T09:29:28;34.60;16.20
13470;DHT22;6807;48.682;9.032;2023-06-26T09:31:56;35.70;26.40
13470;DHT22;6807;48.682;9.032;2023-06-26T09:34:30;35.20;1.00
13470;DHT22;6807;48.682;9.032;2023-06-26T10:01:43;32.70;99.90
13470;DHT22;6807;48.682;9.032;2023-06-26T10:06:43;32.30;99.90
13470;DHT22;6807;48.682;9.032;2023-06-26T10:36:35;34.40;1.00
13470;DHT22;6807;48.682;9.032;2023-06-26T20:44:48;19.00;1.00
13470;DHT22;6807;48.682;9.032;2023-06-26T20:52:17;19.00;99.90
13470;DHT22;6807;48.682;9.032;2023-06-26T20:54:45;19.60;1.00
13470;DHT22;6807;48.682;9.032;2023-06-26T21:04:35;19.00;1.00
13470;DHT22;6807;48.682;9.032;2023-06-26T21:07:05;18.90;99.90
13470;DHT22;6807;48.682;9.032;2023-06-26T21:12:00;18.60;99.90
13470;DHT22;6807;48.682;9.032;2023-06-26T21:19:21;18.60;99.90
13470;DHT22;6807;48.682;9.032;2023-06-26T21:24:17;18.60;99.90
13470;DHT22;6807;48.682;9.032;2023-06-26T21:34:05;18.20;99.90
13470;DHT22;6807;48.682;9.032;2023-06-26T21:39:00;18.40;99.90
13470;DHT22;6807;48.682;9.032;2023-06-26T21:41:29;18.50;99.90
13470;DHT22;6807;48.682;9.032;2023-06-26T21:43:56;18.60;99.90
13470;DHT22;6807;48.682;9.032;2023-06-26T21:51:18;18.50;99.90
13470;DHT22;6807;48.682;9.032;2023-06-26T21:58:41;18.50;99.90
13470;DHT22;6807;48.682;9.032;2023-06-26T22:15:54;18.40;99.90
13470;DHT22;6807;48.682;9.032;2023-06-26T22:25:43;18.20;99.90
13470;DHT22;6807;48.682;9.032;2023-06-26T22:33:06;18.10;99.90
13470;DHT22;6807;48.682;9.032;2023-06-26T22:40:28;18.30;1.00
13470;DHT22;6807;48.682;9.032;2023-06-26T22:50:17;17.60;99.90
13470;DHT22;6807;48.682;9.032;2023-06-26T22:52:45;17.80;99.90
13470;DHT22;6807;48.682;9.032;2023-06-26T23:07:34;17.30;99.90
13470;DHT22;6807;48.682;9.032;2023-06-26T23:19:51;17.50;1.00
13470;DHT22;6807;48.682;9.032;2023-06-26T23:22:18;17.00;99.90
13470;DHT22;6807;48.682;9.032;2023-06-26T23:24:47;16.90;99.90
13470;DHT22;6807;48.682;9.032;2023-06-26T23:37:06;16.80;99.90
13470;DHT22;6807;48.682;9.032;2023-06-26T23:42:03;16.70;1.00
13470;DHT22;6807;48.682;9.032;2023-06-26T23:47:00;16.70;99.90
